createdAt,value
2022-12-04T00:00:15.933Z,2.11
2022-12-04T00:02:44.689Z,2.00
2022-12-04T00:05:14.097Z,2.20
2022-12-04T00:07:44.531Z,2.32
2022-12-04T00:10:17.157Z,2.20
2022-12-04T00:12:46.299Z,2.27
2022-12-04T00:15:27.009Z,2.10
2022-12-04T00:17:59.735Z,2.25
2022-12-04T00:20:28.533Z,2.28
2022-12-04T00:22:58.103Z,2.36
2022-12-04T00:25:27.098Z,2.20
2022-12-04T00:27:57.181Z,2.17
2022-12-04T00:30:27.557Z,2.31
2022-12-04T00:32:59.067Z,2.24
2022-12-04T00:35:27.863Z,2.19
2022-12-04T00:37:57.080Z,2.36
2022-12-04T00:40:26.782Z,2.24
2022-12-04T00:42:57.134Z,1.99
2022-12-04T00:45:27.328Z,2.13
2022-12-04T00:47:56.412Z,2.30
2022-12-04T00:50:28.502Z,2.27
2022-12-04T00:52:58.184Z,2.40
2022-12-04T00:55:29.458Z,2.45
2022-12-04T00:58:00.014Z,2.22
2022-12-04T01:00:30.723Z,2.28
2022-12-04T01:03:01.613Z,2.13
2022-12-04T01:05:42.773Z,2.40
2022-12-04T01:08:12.348Z,2.25
2022-12-04T01:10:42.580Z,2.21
2022-12-04T01:13:12.575Z,2.17
2022-12-04T01:15:45.624Z,2.23
2022-12-04T01:18:14.916Z,2.31
2022-12-04T01:20:49.006Z,2.04
2022-12-04T01:23:19.173Z,2.22
2022-12-04T01:25:57.129Z,2.26
2022-12-04T01:28:26.468Z,2.39
2022-12-04T01:31:04.828Z,2.29
2022-12-04T01:33:36.375Z,2.24
2022-12-04T01:36:09.991Z,2.30
2022-12-04T01:38:40.746Z,2.34
2022-12-04T01:41:16.126Z,2.30
2022-12-04T01:43:48.686Z,2.02
2022-12-04T01:49:02.735Z,2.10
2022-12-04T01:51:35.163Z,1.98
2022-12-04T01:54:07.343Z,1.88
2022-12-04T01:56:43.402Z,2.21
2022-12-04T01:59:19.236Z,2.12
2022-12-04T02:01:53.878Z,2.12
2022-12-04T02:04:22.677Z,2.18
2022-12-04T02:06:51.382Z,2.18
2022-12-04T02:09:26.679Z,2.00
2022-12-04T02:11:59.816Z,1.94
2022-12-04T02:14:34.759Z,2.05
2022-12-04T02:17:13.252Z,1.90
2022-12-04T02:20:02.204Z,1.96
2022-12-04T02:22:40.792Z,1.78
2022-12-04T02:25:13.798Z,1.95
2022-12-04T02:28:04.514Z,2.04
2022-12-04T02:30:34.183Z,1.95
2022-12-04T02:33:05.270Z,1.96
2022-12-04T02:35:38.069Z,2.08
2022-12-04T02:38:14.068Z,2.00
2022-12-04T02:40:49.150Z,2.03
2022-12-04T02:43:23.814Z,2.09
2022-12-04T02:45:57.126Z,2.01
2022-12-04T02:48:25.900Z,1.85
2022-12-04T02:50:55.688Z,1.97
2022-12-04T02:53:28.036Z,1.98
2022-12-04T02:56:04.068Z,2.05
2022-12-04T02:58:38.303Z,1.99
2022-12-04T03:01:20.025Z,2.03
2022-12-04T03:03:50.609Z,2.04
2022-12-04T03:06:20.313Z,1.98
2022-12-04T03:08:52.007Z,1.99
2022-12-04T03:11:21.105Z,1.99
2022-12-04T03:13:53.097Z,1.87
2022-12-04T03:16:25.346Z,1.81
2022-12-04T03:18:57.049Z,1.55
2022-12-04T03:21:30.338Z,1.62
2022-12-04T03:24:01.528Z,1.46
2022-12-04T03:26:37.223Z,1.50
2022-12-04T03:29:19.178Z,1.58
2022-12-04T03:31:50.563Z,1.38
2022-12-04T03:34:27.811Z,1.50
2022-12-04T03:36:58.852Z,1.54
2022-12-04T03:39:31.547Z,1.49
2022-12-04T03:42:01.771Z,1.54
2022-12-04T03:44:35.342Z,1.56
2022-12-04T03:47:07.142Z,1.43
2022-12-04T03:49:41.912Z,1.47
2022-12-04T03:52:14.792Z,1.43
2022-12-04T03:54:49.297Z,1.22
2022-12-04T03:57:20.464Z,1.28
2022-12-04T03:59:55.907Z,1.56
2022-12-04T04:02:26.530Z,1.19
2022-12-04T04:04:58.584Z,0.82
2022-12-04T04:07:35.315Z,1.38
2022-12-04T04:10:08.075Z,1.16
2022-12-04T04:12:41.482Z,1.16
2022-12-04T04:15:28.588Z,1.10
2022-12-04T04:18:12.017Z,0.99
2022-12-04T04:20:58.368Z,1.35
2022-12-04T04:23:40.832Z,1.42
2022-12-04T04:26:09.548Z,1.30
2022-12-04T04:28:39.419Z,1.68
2022-12-04T04:31:14.500Z,1.37
2022-12-04T04:33:49.192Z,1.31
2022-12-04T04:36:25.151Z,1.20
2022-12-04T04:39:01.702Z,1.30
2022-12-04T04:41:38.479Z,1.36
2022-12-04T04:44:12.504Z,1.32
2022-12-04T04:46:46.741Z,1.14
2022-12-04T04:49:18.637Z,1.35
2022-12-04T04:51:47.394Z,1.25
2022-12-04T04:54:16.674Z,1.17
2022-12-04T04:56:46.500Z,1.24
2022-12-04T04:59:15.421Z,1.43
2022-12-04T05:01:46.920Z,1.38
2022-12-04T05:04:16.011Z,1.47
2022-12-04T05:06:45.261Z,1.41
2022-12-04T05:09:14.578Z,1.16
2022-12-04T05:11:43.365Z,1.10
2022-12-04T05:14:12.881Z,1.06
2022-12-04T05:16:42.149Z,1.05
2022-12-04T05:19:27.737Z,1.17
2022-12-04T05:21:57.449Z,1.09
2022-12-04T05:24:26.110Z,0.92
2022-12-04T05:26:54.870Z,1.06
2022-12-04T05:29:23.616Z,1.05
2022-12-04T05:31:52.360Z,1.00
2022-12-04T05:34:22.621Z,1.10
2022-12-04T05:36:51.665Z,1.12
2022-12-04T05:39:20.629Z,1.12
2022-12-04T05:41:50.887Z,1.06
2022-12-04T05:44:19.790Z,1.08
2022-12-04T05:46:48.958Z,0.92
2022-12-04T05:49:17.929Z,0.95
2022-12-04T05:51:48.196Z,1.06
2022-12-04T05:54:27.292Z,1.05
2022-12-04T05:56:56.500Z,0.86
2022-12-04T05:59:25.690Z,0.63
2022-12-04T06:01:54.900Z,0.78
2022-12-04T06:04:23.814Z,0.57
2022-12-04T06:06:54.822Z,0.49
2022-12-04T06:09:24.762Z,0.72
2022-12-04T06:11:56.657Z,0.36
2022-12-04T06:14:25.413Z,0.63
2022-12-04T06:16:55.361Z,0.78
2022-12-04T06:19:24.391Z,0.85
2022-12-04T06:21:54.821Z,0.82
2022-12-04T06:24:24.386Z,0.75
2022-12-04T06:27:25.626Z,0.84
2022-12-04T06:29:43.229Z,0.54
2022-12-04T06:32:15.256Z,0.59
2022-12-04T06:34:48.889Z,0.68
2022-12-04T06:37:19.952Z,0.63
2022-12-04T06:39:49.080Z,0.83
2022-12-04T06:42:17.910Z,0.79
2022-12-04T06:44:46.731Z,0.69
2022-12-04T06:47:15.395Z,0.46
2022-12-04T06:49:46.219Z,0.72
2022-12-04T06:52:15.150Z,0.88
2022-12-04T06:54:45.245Z,0.94
2022-12-04T06:57:14.056Z,0.97
2022-12-04T06:59:42.713Z,1.02
2022-12-04T07:02:12.004Z,0.95
2022-12-04T07:04:40.718Z,1.15
2022-12-04T07:07:10.321Z,1.06
2022-12-04T07:09:39.101Z,1.17
2022-12-04T07:12:09.918Z,1.25
2022-12-04T07:14:38.877Z,1.08
2022-12-04T07:17:07.677Z,1.02
2022-12-04T07:19:36.399Z,1.14
2022-12-04T07:22:05.164Z,1.10
2022-12-04T07:24:34.038Z,1.13
2022-12-04T07:27:02.778Z,1.16
2022-12-04T07:29:32.932Z,0.98
2022-12-04T07:32:03.038Z,0.97
2022-12-04T07:34:32.126Z,0.85
2022-12-04T07:37:00.802Z,0.73
2022-12-04T07:39:29.739Z,0.90
2022-12-04T07:41:59.770Z,0.84
2022-12-04T07:44:28.456Z,0.83
2022-12-04T07:46:58.796Z,1.00
2022-12-04T07:49:28.360Z,0.67
2022-12-04T07:51:58.395Z,0.86
2022-12-04T07:54:27.148Z,0.84
2022-12-04T07:56:55.868Z,0.96
2022-12-04T07:59:24.657Z,1.16
2022-12-04T08:01:56.050Z,1.19
2022-12-04T08:04:27.344Z,1.15
2022-12-04T08:06:57.096Z,1.30
2022-12-04T08:09:29.685Z,1.27
2022-12-04T08:12:01.050Z,1.23
2022-12-04T08:14:29.870Z,1.21
2022-12-04T08:17:01.520Z,1.30
2022-12-04T08:19:32.572Z,1.02
2022-12-04T08:22:01.313Z,1.12
2022-12-04T08:24:30.426Z,1.27
2022-12-04T08:27:02.706Z,0.98
2022-12-04T08:29:32.125Z,0.93
2022-12-04T08:32:00.920Z,1.27
2022-12-04T08:34:34.049Z,1.08
2022-12-04T08:37:02.852Z,1.25
2022-12-04T08:39:31.618Z,1.25
2022-12-04T08:42:00.691Z,1.29
2022-12-04T08:44:47.655Z,1.36
2022-12-04T08:47:16.570Z,1.36
2022-12-04T08:49:47.196Z,1.54
2022-12-04T08:52:15.871Z,1.34
2022-12-04T08:54:45.667Z,1.52
2022-12-04T08:57:14.533Z,1.63
2022-12-04T08:59:43.322Z,1.38
2022-12-04T09:02:13.301Z,1.31
2022-12-04T09:04:43.157Z,1.57
2022-12-04T09:07:13.286Z,1.53
2022-12-04T09:09:48.064Z,1.47
2022-12-04T09:12:17.253Z,1.40
2022-12-04T09:14:47.446Z,1.73
2022-12-04T09:17:17.117Z,1.70
2022-12-04T09:19:46.528Z,1.63
2022-12-04T09:22:16.813Z,1.59
2022-12-04T09:24:48.724Z,1.67
2022-12-04T09:27:17.509Z,1.66
2022-12-04T09:29:54.969Z,1.83
2022-12-04T09:32:25.052Z,1.74
2022-12-04T09:34:53.985Z,1.42
2022-12-04T09:37:24.194Z,1.67
2022-12-04T09:39:53.803Z,1.78
2022-12-04T09:42:32.057Z,1.63
2022-12-04T09:45:03.986Z,1.64
2022-12-04T09:47:34.858Z,1.56
2022-12-04T09:50:08.500Z,1.42
2022-12-04T09:52:52.294Z,1.48
2022-12-04T09:55:26.027Z,1.55
2022-12-04T09:58:02.176Z,1.30
2022-12-04T10:00:36.667Z,1.60
2022-12-04T10:03:14.365Z,1.61
2022-12-04T10:06:13.119Z,1.58
2022-12-04T10:08:47.500Z,1.50
2022-12-04T10:11:19.934Z,1.73
2022-12-04T10:14:04.142Z,1.82
2022-12-04T10:16:53.328Z,1.74
2022-12-04T10:19:42.797Z,1.79
2022-12-04T10:22:39.663Z,1.77
2022-12-04T10:25:43.840Z,1.86
2022-12-04T10:28:26.619Z,1.43
2022-12-04T10:31:01.286Z,1.92
2022-12-04T10:33:42.284Z,1.99
2022-12-04T10:36:16.003Z,2.09
2022-12-04T10:38:46.977Z,2.16
2022-12-04T10:41:26.130Z,2.07
2022-12-04T10:44:03.453Z,1.87
2022-12-04T10:46:44.524Z,2.12
2022-12-04T10:49:18.667Z,2.01
2022-12-04T10:51:57.777Z,2.28
2022-12-04T10:54:32.082Z,2.26
2022-12-04T10:57:25.220Z,2.03
2022-12-04T10:59:56.232Z,2.23
2022-12-04T11:02:33.540Z,2.04
2022-12-04T11:05:04.639Z,2.30
2022-12-04T11:07:49.732Z,2.27
2022-12-04T11:10:26.834Z,2.37
2022-12-04T11:13:05.366Z,2.58
2022-12-04T11:15:39.489Z,2.20
2022-12-04T11:18:14.956Z,2.38
2022-12-04T11:20:50.167Z,2.45
2022-12-04T11:23:21.995Z,2.39
2022-12-04T11:25:59.331Z,2.36
2022-12-04T11:28:43.392Z,2.21
2022-12-04T11:31:32.465Z,2.47
2022-12-04T11:34:08.809Z,2.26
2022-12-04T11:36:41.216Z,1.98
2022-12-04T11:39:20.769Z,2.34
2022-12-04T11:41:50.701Z,2.33
2022-12-04T11:44:33.878Z,2.33
2022-12-04T11:47:05.898Z,2.42
2022-12-04T11:49:42.273Z,2.37
2022-12-04T11:52:25.272Z,2.33
2022-12-04T11:55:00.304Z,2.32
2022-12-04T11:57:34.225Z,2.40
2022-12-04T12:00:12.907Z,2.37
2022-12-04T12:02:55.746Z,2.46
2022-12-04T12:05:39.100Z,2.24
2022-12-04T12:08:11.325Z,2.36
2022-12-04T12:10:58.681Z,2.33
2022-12-04T12:13:31.663Z,2.06
2022-12-04T12:16:09.905Z,2.33
2022-12-04T12:18:52.018Z,2.23
2022-12-04T12:21:25.180Z,2.23
2022-12-04T12:24:13.267Z,2.37
2022-12-04T12:26:46.782Z,2.52
2022-12-04T12:29:22.257Z,2.19
2022-12-04T12:32:03.170Z,2.32
2022-12-04T12:34:39.809Z,2.38
2022-12-04T12:37:40.925Z,2.28
2022-12-04T12:40:19.452Z,2.33
2022-12-04T12:43:00.986Z,2.33
2022-12-04T12:45:39.823Z,2.45
2022-12-04T12:48:21.896Z,2.37
2022-12-04T12:51:21.915Z,2.49
2022-12-04T12:53:51.631Z,2.33
2022-12-04T12:56:33.904Z,2.32
2022-12-04T12:59:07.101Z,2.44
2022-12-04T13:01:46.320Z,2.46
2022-12-04T13:04:44.647Z,2.45
2022-12-04T13:07:26.357Z,2.47
2022-12-04T13:10:01.717Z,2.71
2022-12-04T13:12:31.921Z,2.48
2022-12-04T13:15:03.191Z,2.68
2022-12-04T13:17:54.600Z,2.85
2022-12-04T13:20:29.046Z,2.67
2022-12-04T13:23:07.842Z,2.74
2022-12-04T13:25:52.028Z,2.76
2022-12-04T13:28:36.642Z,2.75
2022-12-04T13:31:12.875Z,2.72
2022-12-04T13:34:02.353Z,2.93
2022-12-04T13:36:54.157Z,2.90
2022-12-04T13:39:41.067Z,2.76
2022-12-04T13:42:26.154Z,2.83
2022-12-04T13:44:56.952Z,2.88
2022-12-04T13:47:35.495Z,2.86
2022-12-04T13:50:29.452Z,2.90
2022-12-04T13:53:04.260Z,2.87
2022-12-04T13:55:44.997Z,2.83
2022-12-04T13:58:29.110Z,2.76
2022-12-04T14:01:09.324Z,2.87
2022-12-04T14:03:47.636Z,2.73
2022-12-04T14:09:26.258Z,2.78
2022-12-04T14:12:04.251Z,2.60
2022-12-04T14:17:25.793Z,2.70
2022-12-04T14:20:18.636Z,2.56
2022-12-04T14:23:27.845Z,2.78
2022-12-04T14:26:02.610Z,2.85
2022-12-04T14:28:45.912Z,2.67
2022-12-04T14:31:31.275Z,2.72
2022-12-04T14:34:04.940Z,2.76
2022-12-04T14:36:37.305Z,2.82
2022-12-04T14:39:20.722Z,2.79
2022-12-04T14:41:57.887Z,2.70
2022-12-04T14:44:33.129Z,2.81
2022-12-04T14:47:15.081Z,2.85
2022-12-04T14:50:06.279Z,2.78
2022-12-04T14:52:42.214Z,2.71
2022-12-04T14:55:35.459Z,2.74
2022-12-04T14:58:27.479Z,2.59
2022-12-04T15:01:08.314Z,2.50
2022-12-04T15:03:47.000Z,2.61
2022-12-04T15:06:21.971Z,2.63
2022-12-04T15:08:54.386Z,2.69
2022-12-04T15:11:39.318Z,2.53
2022-12-04T15:14:16.322Z,2.67
2022-12-04T15:16:51.404Z,2.58
2022-12-04T15:19:31.577Z,2.53
2022-12-04T15:22:01.304Z,2.64
2022-12-04T15:24:33.173Z,2.45
2022-12-04T15:27:07.476Z,2.48
2022-12-04T15:29:49.034Z,2.57
2022-12-04T15:32:24.776Z,2.41
2022-12-04T15:34:58.564Z,2.47
2022-12-04T15:37:28.602Z,2.52
2022-12-04T15:39:58.901Z,2.45
2022-12-04T15:42:31.707Z,2.41
2022-12-04T15:45:03.468Z,2.41
2022-12-04T15:47:39.287Z,2.49
2022-12-04T15:50:40.766Z,2.52
2022-12-04T15:53:22.164Z,2.35
2022-12-04T15:55:53.088Z,2.42
2022-12-04T15:58:24.207Z,2.44
2022-12-04T16:01:00.968Z,2.38
2022-12-04T16:03:34.574Z,2.29
2022-12-04T16:06:15.231Z,2.29
2022-12-04T16:08:47.466Z,2.14
2022-12-04T16:11:31.808Z,2.22
2022-12-04T16:14:10.516Z,2.11
2022-12-04T16:16:45.301Z,2.25
2022-12-04T16:19:20.337Z,2.15
2022-12-04T16:21:50.471Z,2.29
2022-12-04T16:24:32.000Z,2.34
2022-12-04T16:27:08.569Z,2.20
2022-12-04T16:29:48.895Z,2.35
2022-12-04T16:32:30.131Z,2.23
2022-12-04T16:35:02.322Z,2.33
2022-12-04T16:37:32.185Z,2.35
2022-12-04T16:40:13.742Z,2.44
2022-12-04T16:42:49.584Z,2.53
2022-12-04T16:45:24.729Z,2.54
2022-12-04T16:48:11.365Z,2.59
2022-12-04T16:50:42.029Z,2.46
2022-12-04T16:53:15.032Z,2.52
2022-12-04T16:55:50.069Z,2.44
2022-12-04T16:58:21.130Z,2.40
2022-12-04T17:01:00.557Z,2.42
2022-12-04T17:03:33.615Z,2.44
2022-12-04T17:06:03.495Z,2.53
2022-12-04T17:08:59.688Z,2.46
2022-12-04T17:11:29.148Z,2.38
2022-12-04T17:13:59.473Z,2.45
2022-12-04T17:16:29.968Z,2.25
2022-12-04T17:19:01.037Z,2.45
2022-12-04T17:21:32.283Z,2.32
2022-12-04T17:24:03.681Z,2.31
2022-12-04T17:26:42.691Z,2.31
2022-12-04T17:29:27.189Z,2.43
2022-12-04T17:32:01.179Z,2.40
2022-12-04T17:34:37.114Z,2.35
2022-12-04T17:37:08.304Z,2.38
2022-12-04T17:39:37.893Z,2.37
2022-12-04T17:42:07.243Z,2.36
2022-12-04T17:44:37.862Z,2.26
2022-12-04T17:47:07.258Z,2.21
2022-12-04T17:49:37.717Z,2.27
2022-12-04T17:52:08.823Z,2.30
2022-12-04T17:54:38.873Z,2.36
2022-12-04T17:57:10.038Z,2.35
2022-12-04T17:59:39.397Z,2.34
2022-12-04T18:02:14.645Z,2.20
2022-12-04T18:04:44.764Z,2.29
2022-12-04T18:07:13.504Z,2.32
2022-12-04T18:09:42.475Z,2.34
2022-12-04T18:12:14.564Z,2.37
2022-12-04T18:14:46.140Z,2.39
2022-12-04T18:17:20.156Z,2.22
2022-12-04T18:19:55.384Z,2.38
2022-12-04T18:22:29.779Z,2.50
2022-12-04T18:24:59.473Z,2.56
2022-12-04T18:27:30.961Z,2.42
2022-12-04T18:30:02.943Z,2.34
2022-12-04T18:32:32.909Z,2.39
2022-12-04T18:35:06.499Z,2.42
2022-12-04T18:37:51.075Z,2.23
2022-12-04T18:40:37.959Z,2.34
2022-12-04T18:43:08.036Z,2.05
2022-12-04T18:45:39.406Z,2.16
2022-12-04T18:48:09.773Z,2.14
2022-12-04T18:50:41.191Z,2.18
2022-12-04T18:53:11.225Z,2.04
2022-12-04T18:55:43.709Z,2.11
2022-12-04T18:58:18.429Z,2.12
2022-12-04T19:00:49.731Z,2.00
2022-12-04T19:03:25.026Z,1.97
2022-12-04T19:05:59.214Z,2.07
2022-12-04T19:08:33.714Z,1.97
2022-12-04T19:11:08.936Z,2.01
2022-12-04T19:13:38.276Z,1.98
2022-12-04T19:16:13.495Z,1.93
2022-12-04T19:18:42.900Z,2.04
2022-12-04T19:21:20.951Z,1.98
2022-12-04T19:23:55.301Z,2.12
2022-12-04T19:26:28.895Z,2.00
2022-12-04T19:28:57.739Z,2.13
2022-12-04T19:31:30.467Z,2.19
2022-12-04T19:34:00.687Z,2.20
2022-12-04T19:36:34.568Z,2.22
2022-12-04T19:39:07.530Z,2.38
2022-12-04T19:41:37.707Z,2.22
2022-12-04T19:44:46.777Z,2.10
2022-12-04T19:47:02.481Z,2.20
2022-12-04T19:49:34.921Z,2.24
2022-12-04T19:52:10.660Z,2.30
2022-12-04T19:54:41.720Z,2.41
2022-12-04T19:57:10.906Z,2.29
2022-12-04T19:59:46.208Z,2.22
2022-12-04T20:02:18.751Z,2.39
2022-12-04T20:04:52.984Z,2.27
2022-12-04T20:07:23.415Z,2.40
2022-12-04T20:09:54.138Z,2.45
2022-12-04T20:12:24.026Z,2.30
2022-12-04T20:15:06.901Z,2.28
2022-12-04T20:17:37.730Z,2.46
2022-12-04T20:20:11.312Z,2.40
2022-12-04T20:23:09.882Z,2.32
2022-12-04T20:28:27.198Z,2.40
2022-12-04T20:30:57.910Z,2.37
2022-12-04T20:33:27.997Z,2.37
2022-12-04T20:36:03.060Z,2.42
2022-12-04T20:38:47.658Z,2.36
2022-12-04T20:41:20.032Z,2.44
2022-12-04T20:43:56.596Z,2.44
2022-12-04T20:46:28.255Z,2.33
2022-12-04T20:49:07.595Z,2.32
2022-12-04T20:51:37.515Z,2.19
2022-12-04T20:54:22.575Z,2.05
2022-12-04T20:56:56.022Z,1.98
2022-12-04T20:59:26.707Z,2.05
2022-12-04T21:01:56.998Z,2.09
2022-12-04T21:04:27.357Z,2.16
2022-12-04T21:06:59.237Z,2.04
2022-12-04T21:09:38.189Z,1.95
2022-12-04T21:12:28.885Z,2.02
2022-12-04T21:15:12.040Z,2.04
2022-12-04T21:17:45.320Z,2.13
2022-12-04T21:20:17.776Z,2.17
2022-12-04T21:22:51.233Z,1.99
2022-12-04T21:25:33.998Z,2.07
2022-12-04T21:28:07.803Z,2.07
2022-12-04T21:30:39.747Z,2.09
2022-12-04T21:33:12.574Z,2.03
2022-12-04T21:35:55.716Z,1.91
2022-12-04T21:38:29.538Z,2.09
2022-12-04T21:41:01.715Z,2.18
2022-12-04T21:43:35.445Z,2.23
2022-12-04T21:46:13.095Z,2.33
2022-12-04T21:48:49.913Z,2.01
2022-12-04T21:51:55.685Z,2.22
2022-12-04T21:54:20.190Z,2.22
2022-12-04T21:56:56.319Z,2.30
2022-12-04T21:59:25.159Z,2.46
2022-12-04T22:01:55.979Z,2.45
2022-12-04T22:04:25.828Z,2.68
2022-12-04T22:06:56.914Z,2.74
2022-12-04T22:09:29.214Z,2.60
2022-12-04T22:11:59.616Z,2.69
2022-12-04T22:14:30.835Z,2.82
2022-12-04T22:16:59.832Z,2.54
2022-12-04T22:19:28.702Z,2.61
2022-12-04T22:21:57.625Z,2.55
2022-12-04T22:24:28.831Z,2.53
2022-12-04T22:27:00.396Z,2.58
2022-12-04T22:32:17.931Z,2.53
2022-12-04T22:34:49.085Z,2.56
2022-12-04T22:37:19.090Z,2.73
2022-12-04T22:39:47.890Z,2.58
2022-12-04T22:42:18.084Z,2.76
2022-12-04T22:44:50.687Z,2.72
2022-12-04T22:47:19.478Z,2.61
2022-12-04T22:49:48.721Z,2.64
2022-12-04T22:52:17.518Z,2.74
2022-12-04T22:54:51.235Z,2.81
2022-12-04T22:57:21.444Z,2.69
2022-12-04T22:59:50.411Z,2.77
2022-12-04T23:02:20.174Z,2.73
2022-12-04T23:04:49.338Z,2.71
2022-12-04T23:07:19.738Z,2.78
2022-12-04T23:09:48.536Z,2.60
2022-12-04T23:12:17.271Z,2.69
2022-12-04T23:14:47.216Z,2.66
2022-12-04T23:17:15.634Z,2.56
2022-12-04T23:19:44.337Z,2.57
2022-12-04T23:22:12.991Z,2.51
2022-12-04T23:24:42.179Z,2.42
2022-12-04T23:27:10.953Z,2.67
2022-12-04T23:29:55.213Z,2.66
2022-12-04T23:32:25.310Z,2.66
2022-12-04T23:34:54.366Z,2.64
2022-12-04T23:37:23.236Z,2.63
2022-12-04T23:39:52.207Z,2.50
2022-12-04T23:42:20.870Z,2.44
2022-12-04T23:44:49.856Z,2.37
2022-12-04T23:47:20.085Z,2.37
2022-12-04T23:49:50.543Z,2.48
2022-12-04T23:52:19.574Z,2.43
2022-12-04T23:54:48.516Z,2.34
2022-12-04T23:57:17.533Z,2.52
2022-12-04T23:59:48.686Z,2.35
